createdAt,value
2018-03-23T00:01:19.576Z,4.80
2018-03-23T00:03:47.151Z,4.70
2018-03-23T00:06:14.711Z,4.80
2018-03-23T00:08:42.261Z,4.80
2018-03-23T00:11:09.793Z,4.80
2018-03-23T00:13:38.148Z,4.80
2018-03-23T00:16:07.195Z,4.70
2018-03-23T00:18:34.759Z,4.70
2018-03-23T00:21:02.284Z,4.70
2018-03-23T00:23:30.618Z,4.70
2018-03-23T00:25:58.177Z,4.60
2018-03-23T00:28:25.761Z,4.70
2018-03-23T00:30:53.298Z,4.60
2018-03-23T00:33:20.993Z,4.70
2018-03-23T00:35:49.326Z,4.60
2018-03-23T00:38:16.873Z,4.60
2018-03-23T00:40:44.445Z,4.60
2018-03-23T00:43:12.005Z,4.60
2018-03-23T00:45:39.570Z,4.60
2018-03-23T00:48:07.101Z,4.60
2018-03-23T00:50:34.848Z,4.60
2018-03-23T00:53:02.411Z,4.60
2018-03-23T00:55:29.975Z,4.60
2018-03-23T00:57:57.612Z,4.60
2018-03-23T01:00:25.153Z,4.60
2018-03-23T01:02:53.696Z,4.60
2018-03-23T01:05:21.448Z,4.60
2018-03-23T01:07:48.983Z,4.60
2018-03-23T01:10:16.543Z,4.60
2018-03-23T01:12:44.846Z,4.70
2018-03-23T01:15:12.407Z,4.70
2018-03-23T01:17:39.941Z,4.70
2018-03-23T01:20:08.263Z,4.80
2018-03-23T01:22:35.814Z,4.70
2018-03-23T01:25:03.597Z,4.80
2018-03-23T01:27:31.237Z,4.80
2018-03-23T01:29:58.794Z,4.80
2018-03-23T01:32:26.390Z,4.80
2018-03-23T01:34:53.920Z,4.80
2018-03-23T01:37:21.481Z,4.80
2018-03-23T01:39:49.032Z,4.80
2018-03-23T01:42:16.585Z,4.80
2018-03-23T01:44:44.125Z,4.80
2018-03-23T01:47:11.790Z,4.90
2018-03-23T01:49:39.324Z,4.90
2018-03-23T01:52:06.889Z,4.90
2018-03-23T01:54:34.496Z,4.90
2018-03-23T01:57:02.054Z,4.90
2018-03-23T01:59:29.608Z,4.90
2018-03-23T02:01:57.170Z,4.90
2018-03-23T02:04:24.830Z,4.90
2018-03-23T02:06:52.431Z,4.90
2018-03-23T02:09:19.981Z,4.90
2018-03-23T02:11:47.560Z,4.90
2018-03-23T02:14:15.110Z,4.90
2018-03-23T02:16:42.681Z,4.90
2018-03-23T02:19:10.225Z,4.80
2018-03-23T02:21:38.038Z,4.80
2018-03-23T02:24:05.565Z,4.90
2018-03-23T02:26:33.110Z,4.80
2018-03-23T02:29:00.664Z,4.80
2018-03-23T02:31:28.353Z,4.80
2018-03-23T02:33:56.700Z,4.90
2018-03-23T02:36:24.248Z,4.90
2018-03-23T02:38:51.806Z,4.90
2018-03-23T02:41:19.342Z,4.90
2018-03-23T02:43:46.905Z,4.90
2018-03-23T02:46:14.434Z,4.90
2018-03-23T02:48:41.990Z,4.90
2018-03-23T02:51:10.295Z,4.80
2018-03-23T02:53:39.712Z,4.80
2018-03-23T02:56:07.250Z,4.90
2018-03-23T02:58:34.852Z,4.80
2018-03-23T03:01:02.384Z,4.90
2018-03-23T03:03:29.998Z,4.90
2018-03-23T03:05:57.535Z,4.90
2018-03-23T03:08:25.893Z,4.90
2018-03-23T03:10:53.437Z,4.90
2018-03-23T03:13:20.974Z,4.90
2018-03-23T03:15:48.535Z,4.90
2018-03-23T03:18:16.077Z,4.90
2018-03-23T03:20:43.822Z,4.90
2018-03-23T03:23:11.362Z,4.90
2018-03-23T03:25:38.929Z,4.90
2018-03-23T03:28:06.465Z,4.80
2018-03-23T03:30:34.022Z,4.90
2018-03-23T03:33:01.749Z,4.90
2018-03-23T03:35:30.077Z,4.90
2018-03-23T03:37:57.628Z,4.90
2018-03-23T03:40:25.229Z,4.90
2018-03-23T03:42:53.517Z,4.90
2018-03-23T03:45:21.106Z,4.90
2018-03-23T03:47:48.793Z,4.80
2018-03-23T03:50:16.366Z,4.80
2018-03-23T03:52:43.903Z,4.80
2018-03-23T03:55:11.462Z,4.80
2018-03-23T03:57:39.114Z,4.80
2018-03-23T04:00:06.661Z,4.80
2018-03-23T04:02:34.438Z,4.80
2018-03-23T04:05:02.105Z,4.70
2018-03-23T04:07:29.741Z,4.70
2018-03-23T04:09:57.282Z,4.70
2018-03-23T04:12:25.607Z,4.70
2018-03-23T04:14:53.133Z,4.70
2018-03-23T04:17:20.751Z,4.70
2018-03-23T04:19:48.442Z,4.80
2018-03-23T04:22:16.013Z,4.70
2018-03-23T04:24:44.422Z,4.70
2018-03-23T04:27:11.985Z,4.70
2018-03-23T04:29:39.546Z,4.70
2018-03-23T04:32:07.110Z,4.70
2018-03-23T04:34:34.651Z,4.70
2018-03-23T04:37:02.386Z,4.70
2018-03-23T04:39:30.735Z,4.70
2018-03-23T04:41:58.309Z,4.70
2018-03-23T04:44:25.856Z,4.70
2018-03-23T04:46:53.418Z,4.70
2018-03-23T04:49:20.957Z,4.70
2018-03-23T04:51:48.518Z,4.70
2018-03-23T04:54:16.053Z,4.60
2018-03-23T04:56:43.621Z,4.60
2018-03-23T04:59:11.227Z,4.60
2018-03-23T05:01:38.727Z,4.60
2018-03-23T05:04:06.290Z,4.60
2018-03-23T05:06:33.836Z,4.60
2018-03-23T05:09:02.358Z,4.60
2018-03-23T05:11:29.901Z,4.60
2018-03-23T05:13:57.525Z,4.60
2018-03-23T05:16:25.075Z,4.60
2018-03-23T05:18:52.653Z,4.60
2018-03-23T05:21:20.198Z,4.60
2018-03-23T05:23:47.769Z,4.70
2018-03-23T05:26:15.336Z,4.70
2018-03-23T05:28:42.904Z,4.70
2018-03-23T05:31:10.465Z,4.70
2018-03-23T05:33:38.062Z,4.70
2018-03-23T05:36:06.382Z,4.70
2018-03-23T05:38:33.983Z,4.70
2018-03-23T05:41:01.543Z,4.80
2018-03-23T05:43:29.113Z,4.80
2018-03-23T05:45:56.658Z,4.80
2018-03-23T05:48:24.377Z,4.80
2018-03-23T05:50:52.976Z,4.80
2018-03-23T05:53:20.532Z,4.80
2018-03-23T05:55:48.112Z,4.80
2018-03-23T05:58:15.668Z,4.80
2018-03-23T06:00:43.257Z,4.80
2018-03-23T06:03:13.350Z,4.90
2018-03-23T06:05:40.931Z,4.90
2018-03-23T06:08:08.496Z,4.90
2018-03-23T06:10:36.069Z,4.90
2018-03-23T06:13:03.605Z,5.00
2018-03-23T06:15:31.180Z,5.00
2018-03-23T06:17:59.487Z,5.00
2018-03-23T06:20:27.048Z,5.00
2018-03-23T06:22:55.368Z,5.10
2018-03-23T06:25:23.183Z,5.10
2018-03-23T06:27:51.490Z,5.10
2018-03-23T06:30:19.051Z,5.20
2018-03-23T06:32:46.588Z,5.20
2018-03-23T06:35:14.925Z,5.20
2018-03-23T06:37:42.477Z,5.20
2018-03-23T06:40:10.184Z,5.20
2018-03-23T06:42:38.523Z,5.20
2018-03-23T06:45:06.328Z,5.20
2018-03-23T06:47:33.882Z,5.20
2018-03-23T06:50:01.445Z,5.20
2018-03-23T06:52:29.855Z,5.30
2018-03-23T06:54:57.526Z,5.30
2018-03-23T06:57:25.097Z,5.30
2018-03-23T06:59:52.904Z,5.30
2018-03-23T07:02:21.242Z,5.30
2018-03-23T07:04:48.786Z,5.30
2018-03-23T07:07:16.375Z,5.30
2018-03-23T07:09:43.931Z,5.40
2018-03-23T07:12:11.513Z,5.40
2018-03-23T07:14:39.077Z,5.40
2018-03-23T07:17:07.405Z,5.40
2018-03-23T07:19:34.964Z,5.40
2018-03-23T07:22:02.511Z,5.40
2018-03-23T07:24:30.081Z,5.40
2018-03-23T07:26:57.617Z,5.40
2018-03-23T07:29:25.277Z,5.50
2018-03-23T07:31:52.809Z,5.50
2018-03-23T07:34:20.381Z,5.60
2018-03-23T07:36:48.698Z,5.60
2018-03-23T07:39:16.321Z,5.60
2018-03-23T07:41:44.634Z,5.80
2018-03-23T07:44:12.221Z,5.80
2018-03-23T07:46:39.770Z,5.80
2018-03-23T07:49:07.378Z,5.90
2018-03-23T07:51:35.677Z,5.80
2018-03-23T07:54:03.241Z,5.80
2018-03-23T07:56:30.773Z,5.90
2018-03-23T07:58:59.109Z,5.90
2018-03-23T08:01:26.688Z,5.80
2018-03-23T08:03:55.035Z,5.90
2018-03-23T08:06:22.574Z,5.90
2018-03-23T08:08:50.141Z,5.90
2018-03-23T08:11:17.706Z,6.00
2018-03-23T08:13:45.277Z,6.10
2018-03-23T08:16:13.864Z,6.30
2018-03-23T08:18:41.632Z,6.30
2018-03-23T08:21:09.185Z,6.40
2018-03-23T08:23:36.760Z,6.50
2018-03-23T08:26:04.293Z,6.50
2018-03-23T08:28:31.853Z,6.50
2018-03-23T08:30:59.394Z,6.60
2018-03-23T08:33:26.969Z,6.60
2018-03-23T08:35:54.501Z,6.70
2018-03-23T08:38:22.175Z,6.70
2018-03-23T08:40:49.707Z,6.80
2018-03-23T08:43:18.024Z,6.90
2018-03-23T08:45:45.582Z,6.90
2018-03-23T08:48:13.139Z,7.00
2018-03-23T08:50:40.894Z,7.00
2018-03-23T08:53:08.512Z,7.00
2018-03-23T08:55:36.064Z,7.00
2018-03-23T08:58:03.667Z,7.10
2018-03-23T09:00:31.258Z,7.10
2018-03-23T09:02:58.817Z,7.10
2018-03-23T09:05:26.360Z,7.20
2018-03-23T09:07:54.099Z,7.20
2018-03-23T09:10:21.645Z,7.20
2018-03-23T09:12:49.984Z,7.30
2018-03-23T09:15:17.581Z,7.20
2018-03-23T09:17:45.120Z,7.30
2018-03-23T09:20:12.658Z,7.30
2018-03-23T09:22:40.309Z,7.40
2018-03-23T09:25:07.914Z,7.50
2018-03-23T09:27:35.883Z,7.50
2018-03-23T09:30:04.537Z,7.50
2018-03-23T09:32:32.082Z,7.50
2018-03-23T09:34:59.629Z,7.60
2018-03-23T09:37:27.222Z,7.50
2018-03-23T09:39:54.770Z,7.50
2018-03-23T09:42:22.354Z,7.40
2018-03-23T09:44:49.897Z,7.40
2018-03-23T09:47:17.450Z,7.40
2018-03-23T09:49:45.359Z,7.50
2018-03-23T09:52:12.913Z,7.60
2018-03-23T09:54:41.265Z,7.70
2018-03-23T09:57:10.385Z,7.70
2018-03-23T09:59:37.951Z,7.70
2018-03-23T10:02:06.305Z,7.70
2018-03-23T10:04:33.980Z,7.70
2018-03-23T10:07:01.560Z,7.70
2018-03-23T10:09:29.884Z,7.50
2018-03-23T10:11:57.432Z,7.50
2018-03-23T10:14:25.010Z,7.40
2018-03-23T10:16:52.618Z,7.40
2018-03-23T10:19:20.205Z,7.50
2018-03-23T10:21:47.760Z,7.50
2018-03-23T10:24:15.414Z,7.50
2018-03-23T10:26:43.179Z,7.50
2018-03-23T10:29:10.760Z,7.50
2018-03-23T10:31:38.289Z,7.50
2018-03-23T10:34:05.858Z,7.60
2018-03-23T10:36:33.422Z,7.60
2018-03-23T10:39:00.983Z,7.60
2018-03-23T10:41:28.736Z,7.60
2018-03-23T10:43:56.314Z,7.50
2018-03-23T10:46:23.865Z,7.50
2018-03-23T10:48:51.425Z,7.50
2018-03-23T10:51:18.983Z,7.50
2018-03-23T10:53:46.553Z,7.60
2018-03-23T10:56:14.092Z,7.60
2018-03-23T10:58:41.766Z,7.50
2018-03-23T11:01:14.994Z,7.50
2018-03-23T11:03:42.553Z,7.50
2018-03-23T11:06:10.102Z,7.50
2018-03-23T11:08:37.690Z,7.60
2018-03-23T11:11:05.422Z,7.80
2018-03-23T11:13:32.990Z,7.90
2018-03-23T11:16:00.529Z,8.10
2018-03-23T11:18:28.080Z,8.20
2018-03-23T11:20:55.618Z,8.40
2018-03-23T11:23:23.214Z,8.50
2018-03-23T11:25:50.749Z,8.50
2018-03-23T11:28:18.308Z,8.70
2018-03-23T11:30:45.896Z,8.90
2018-03-23T11:33:13.442Z,8.90
2018-03-23T11:35:40.997Z,8.80
2018-03-23T11:38:08.601Z,8.70
2018-03-23T11:40:36.178Z,8.50
2018-03-23T11:43:04.473Z,8.20
2018-03-23T11:45:32.052Z,8.30
2018-03-23T11:47:59.597Z,8.20
2018-03-23T11:50:27.177Z,8.10
2018-03-23T11:52:54.729Z,8.10
2018-03-23T11:55:22.306Z,8.20
2018-03-23T11:57:49.869Z,8.20
2018-03-23T12:00:17.429Z,8.10
2018-03-23T12:02:44.976Z,8.10
2018-03-23T12:05:12.545Z,8.00
2018-03-23T12:07:40.090Z,8.00
2018-03-23T12:10:07.733Z,8.00
2018-03-23T12:12:35.305Z,7.90
2018-03-23T12:15:02.862Z,7.80
2018-03-23T12:17:30.429Z,7.70
2018-03-23T12:19:58.118Z,7.70
2018-03-23T12:22:25.695Z,7.60
2018-03-23T12:24:53.506Z,7.50
2018-03-23T12:27:21.085Z,7.50
2018-03-23T12:29:48.629Z,7.40
2018-03-23T12:32:16.190Z,7.40
2018-03-23T12:34:43.758Z,7.30
2018-03-23T12:37:11.341Z,7.30
2018-03-23T12:39:38.901Z,7.20
2018-03-23T12:42:06.529Z,7.20
2018-03-23T12:44:34.083Z,7.20
2018-03-23T12:47:01.650Z,7.20
2018-03-23T12:49:29.420Z,7.20
2018-03-23T12:51:56.970Z,7.20
2018-03-23T12:54:24.550Z,7.20
2018-03-23T12:56:52.144Z,7.20
2018-03-23T12:59:19.710Z,7.20
2018-03-23T13:01:48.042Z,7.30
2018-03-23T13:04:15.587Z,7.20
2018-03-23T13:06:43.158Z,7.30
2018-03-23T13:09:10.704Z,7.40
2018-03-23T13:11:38.262Z,7.50
2018-03-23T13:14:05.838Z,7.70
2018-03-23T13:16:35.107Z,7.80
2018-03-23T13:19:02.685Z,7.90
2018-03-23T13:21:30.229Z,7.90
2018-03-23T13:23:57.788Z,8.00
2018-03-23T13:26:25.330Z,8.00
2018-03-23T13:28:52.893Z,8.00
2018-03-23T13:31:21.198Z,7.90
2018-03-23T13:33:48.766Z,7.90
2018-03-23T13:36:16.325Z,7.90
2018-03-23T13:38:43.890Z,7.90
2018-03-23T13:41:11.454Z,7.90
2018-03-23T13:43:39.134Z,7.80
2018-03-23T13:46:06.758Z,7.80
2018-03-23T13:48:34.318Z,7.80
2018-03-23T13:51:02.028Z,7.70
2018-03-23T13:53:29.585Z,7.60
2018-03-23T13:55:57.122Z,7.50
2018-03-23T14:01:30.418Z,7.40
2018-03-23T14:03:57.972Z,7.30
2018-03-23T14:06:25.511Z,7.30
2018-03-23T14:08:53.074Z,7.30
2018-03-23T14:11:20.635Z,7.40
2018-03-23T14:13:48.177Z,7.50
2018-03-23T14:16:15.744Z,7.60
2018-03-23T14:18:44.050Z,8.00
2018-03-23T14:21:11.629Z,7.90
2018-03-23T14:23:39.178Z,8.20
2018-03-23T14:26:06.774Z,8.30
2018-03-23T14:28:34.424Z,8.40
2018-03-23T14:31:02.054Z,8.40
2018-03-23T14:33:29.606Z,8.40
2018-03-23T14:35:57.261Z,8.30
2018-03-23T14:38:24.844Z,8.30
2018-03-23T14:40:52.417Z,8.20
2018-03-23T14:43:19.965Z,8.10
2018-03-23T14:45:47.547Z,8.10
2018-03-23T14:48:15.092Z,8.00
2018-03-23T14:50:42.660Z,8.00
2018-03-23T14:53:10.249Z,8.00
2018-03-23T14:55:38.614Z,8.00
2018-03-23T14:58:06.366Z,7.90
2018-03-23T15:00:33.991Z,8.00
2018-03-23T15:03:01.713Z,7.90
2018-03-23T15:05:30.053Z,7.90
2018-03-23T15:07:57.626Z,7.90
2018-03-23T15:10:25.157Z,7.90
2018-03-23T15:12:52.722Z,7.90
2018-03-23T15:15:20.269Z,7.90
2018-03-23T15:17:47.838Z,8.00
2018-03-23T15:20:15.545Z,8.00
2018-03-23T15:22:43.111Z,8.00
2018-03-23T15:25:10.665Z,8.00
2018-03-23T15:27:38.220Z,8.10
2018-03-23T15:30:05.810Z,8.10
2018-03-23T15:32:33.377Z,8.20
2018-03-23T15:35:01.121Z,8.30
2018-03-23T15:37:29.454Z,8.30
2018-03-23T15:39:57.001Z,8.30
2018-03-23T15:42:24.755Z,8.30
2018-03-23T15:44:52.313Z,8.30
2018-03-23T15:47:19.880Z,8.20
2018-03-23T15:49:47.516Z,8.00
2018-03-23T15:52:15.122Z,7.90
2018-03-23T15:54:42.670Z,7.80
2018-03-23T15:57:10.241Z,7.70
2018-03-23T15:59:37.812Z,7.60
2018-03-23T16:02:05.476Z,7.50
2018-03-23T16:04:33.010Z,7.50
2018-03-23T16:07:00.551Z,7.30
2018-03-23T16:09:28.129Z,7.30
2018-03-23T16:11:55.670Z,7.20
2018-03-23T16:14:23.461Z,7.10
2018-03-23T16:16:51.080Z,7.10
2018-03-23T16:19:18.647Z,7.00
2018-03-23T16:21:46.213Z,7.00
2018-03-23T16:24:13.767Z,6.90
2018-03-23T16:26:41.307Z,6.90
2018-03-23T16:29:08.875Z,6.80
2018-03-23T16:31:36.509Z,6.70
2018-03-23T16:34:04.030Z,6.60
2018-03-23T16:36:34.309Z,6.50
2018-03-23T16:39:03.125Z,6.30
2018-03-23T16:41:30.857Z,6.30
2018-03-23T16:43:59.302Z,6.10
2018-03-23T16:46:26.849Z,6.10
2018-03-23T16:48:54.402Z,6.00
2018-03-23T16:51:21.947Z,6.00
2018-03-23T16:53:49.499Z,5.90
2018-03-23T16:56:17.047Z,5.90
2018-03-23T16:58:44.619Z,5.80
2018-03-23T17:01:12.491Z,5.70
2018-03-23T17:03:40.051Z,5.70
2018-03-23T17:06:07.794Z,5.70
2018-03-23T17:08:35.382Z,5.60
2018-03-23T17:11:02.935Z,5.60
2018-03-23T17:13:30.701Z,5.50
2018-03-23T17:15:58.284Z,5.50
2018-03-23T17:18:25.837Z,5.50
2018-03-23T17:20:53.398Z,5.50
2018-03-23T17:23:20.942Z,5.50
2018-03-23T17:25:48.509Z,5.50
2018-03-23T17:28:16.158Z,5.50
2018-03-23T17:30:43.721Z,5.60
2018-03-23T17:33:11.280Z,5.60
2018-03-23T17:35:38.864Z,5.70
2018-03-23T17:38:06.418Z,5.60
2018-03-23T17:40:34.285Z,5.70
2018-03-23T17:43:01.845Z,5.70
2018-03-23T17:45:29.488Z,5.70
2018-03-23T17:47:57.054Z,5.80
2018-03-23T17:50:24.615Z,5.80
2018-03-23T17:52:52.194Z,5.80
2018-03-23T17:55:19.738Z,5.90
2018-03-23T17:57:48.061Z,5.90
2018-03-23T18:00:15.630Z,5.90
2018-03-23T18:02:43.995Z,5.90
2018-03-23T18:05:11.567Z,5.90
2018-03-23T18:07:39.964Z,5.90
2018-03-23T18:10:07.576Z,5.90
2018-03-23T18:12:35.273Z,5.90
2018-03-23T18:15:02.863Z,5.90
2018-03-23T18:17:30.444Z,5.90
2018-03-23T18:19:57.987Z,5.90
2018-03-23T18:22:25.571Z,5.90
2018-03-23T18:24:54.035Z,5.90
2018-03-23T18:27:21.612Z,5.90
2018-03-23T18:29:49.179Z,5.90
2018-03-23T18:32:16.875Z,5.90
2018-03-23T18:34:44.416Z,5.90
2018-03-23T18:37:12.232Z,5.90
2018-03-23T18:39:39.794Z,5.90
2018-03-23T18:42:07.364Z,5.90
2018-03-23T18:44:36.425Z,5.80
2018-03-23T18:47:03.990Z,5.80
2018-03-23T18:49:31.554Z,5.70
2018-03-23T18:51:59.201Z,5.70
2018-03-23T18:54:26.766Z,5.70
2018-03-23T18:56:54.337Z,5.70
2018-03-23T18:59:21.886Z,5.70
2018-03-23T19:01:49.454Z,5.60
2018-03-23T19:04:16.994Z,5.60
2018-03-23T19:06:44.766Z,5.60
2018-03-23T19:09:12.348Z,5.60
2018-03-23T19:11:39.936Z,5.60
2018-03-23T19:14:07.662Z,5.60
2018-03-23T19:16:35.238Z,5.60
2018-03-23T19:19:02.835Z,5.60
2018-03-23T19:21:31.451Z,5.60
2018-03-23T19:23:59.114Z,5.60
2018-03-23T19:26:26.673Z,5.60
2018-03-23T19:28:54.300Z,5.60
2018-03-23T19:31:21.846Z,5.60
2018-03-23T19:33:49.409Z,5.60
2018-03-23T19:36:16.965Z,5.60
2018-03-23T19:38:46.039Z,5.50
2018-03-23T19:41:13.601Z,5.50
2018-03-23T19:43:41.186Z,5.50
2018-03-23T19:46:09.051Z,5.50
2018-03-23T19:48:36.687Z,5.60
2018-03-23T19:51:04.254Z,5.50
2018-03-23T19:53:32.860Z,5.50
2018-03-23T19:56:00.468Z,5.50
2018-03-23T19:58:28.096Z,5.50
2018-03-23T20:00:56.930Z,5.60
2018-03-23T20:03:24.793Z,5.60
2018-03-23T20:05:52.449Z,5.60
2018-03-23T20:08:20.142Z,5.60
2018-03-23T20:10:47.783Z,5.60
2018-03-23T20:13:15.340Z,5.60
2018-03-23T20:15:42.965Z,5.60
2018-03-23T20:18:17.037Z,5.60
2018-03-23T20:20:50.237Z,5.60
2018-03-23T20:23:17.836Z,5.70
2018-03-23T20:25:46.215Z,5.60
2018-03-23T20:28:19.465Z,5.60
2018-03-23T20:30:47.286Z,5.60
2018-03-23T20:33:14.830Z,5.50
2018-03-23T20:35:43.158Z,5.50
2018-03-23T20:38:10.712Z,5.50
2018-03-23T20:40:38.261Z,5.50
2018-03-23T20:43:05.861Z,5.50
2018-03-23T20:45:33.417Z,5.50
2018-03-23T20:48:01.760Z,5.50
2018-03-23T20:50:29.306Z,5.50
2018-03-23T20:52:56.887Z,5.50
2018-03-23T20:55:24.939Z,5.50
2018-03-23T20:57:52.477Z,5.50
2018-03-23T21:00:20.797Z,5.50
2018-03-23T21:02:48.388Z,5.50
2018-03-23T21:05:19.206Z,5.50
2018-03-23T21:07:46.753Z,5.50
2018-03-23T21:10:14.391Z,5.50
2018-03-23T21:12:41.959Z,5.50
2018-03-23T21:15:09.527Z,5.60
2018-03-23T21:17:37.086Z,5.50
2018-03-23T21:20:04.630Z,5.50
2018-03-23T21:22:32.187Z,5.50
2018-03-23T21:24:59.725Z,5.50
2018-03-23T21:27:27.308Z,5.50
2018-03-23T21:29:54.856Z,5.50
2018-03-23T21:32:23.347Z,5.50
2018-03-23T21:34:50.904Z,5.50
2018-03-23T21:37:18.570Z,5.50
2018-03-23T21:39:46.137Z,5.50
2018-03-23T21:42:13.702Z,5.50
2018-03-23T21:44:41.267Z,5.40
2018-03-23T21:47:08.960Z,5.40
2018-03-23T21:49:36.576Z,5.50
2018-03-23T21:52:04.304Z,5.40
2018-03-23T21:54:32.941Z,5.50
2018-03-23T21:57:00.483Z,5.40
2018-03-23T21:59:28.242Z,5.40
2018-03-23T22:01:55.800Z,5.40
2018-03-23T22:04:23.374Z,5.40
2018-03-23T22:06:50.925Z,5.40
2018-03-23T22:09:18.487Z,5.40
2018-03-23T22:11:46.032Z,5.40
2018-03-23T22:14:13.658Z,5.40
2018-03-23T22:16:41.970Z,5.30
2018-03-23T22:19:09.534Z,5.30
2018-03-23T22:21:37.128Z,5.30
2018-03-23T22:24:04.669Z,5.30
2018-03-23T22:26:32.965Z,5.30
2018-03-23T22:29:00.507Z,5.30
2018-03-23T22:31:28.064Z,5.30
2018-03-23T22:33:55.630Z,5.30
2018-03-23T22:36:23.210Z,5.30
2018-03-23T22:38:50.762Z,5.30
2018-03-23T22:41:18.583Z,5.40
2018-03-23T22:43:46.141Z,5.40
2018-03-23T22:46:13.737Z,5.40
2018-03-23T22:48:41.283Z,5.30
2018-03-23T22:51:08.881Z,5.30
2018-03-23T22:53:37.495Z,5.30
2018-03-23T22:56:05.828Z,5.30
2018-03-23T22:58:33.373Z,5.30
2018-03-23T23:01:01.161Z,5.20
2018-03-23T23:03:28.972Z,5.20
2018-03-23T23:05:56.525Z,5.30
2018-03-23T23:08:24.094Z,5.30
2018-03-23T23:10:51.660Z,5.30
2018-03-23T23:13:19.239Z,5.20
2018-03-23T23:15:46.780Z,5.20
2018-03-23T23:18:14.338Z,5.10
2018-03-23T23:20:42.385Z,5.10
2018-03-23T23:23:10.716Z,5.00
2018-03-23T23:25:38.259Z,5.00
2018-03-23T23:28:05.840Z,5.00
2018-03-23T23:30:33.416Z,5.00
2018-03-23T23:33:00.977Z,4.90
2018-03-23T23:35:30.022Z,4.80
2018-03-23T23:37:57.579Z,4.80
2018-03-23T23:40:25.135Z,4.80
2018-03-23T23:42:52.903Z,4.80
2018-03-23T23:45:20.564Z,4.80
2018-03-23T23:47:48.136Z,4.80
2018-03-23T23:50:15.685Z,4.80
2018-03-23T23:52:43.346Z,4.80
2018-03-23T23:55:10.902Z,4.80
2018-03-23T23:57:38.510Z,4.80
